Time;durP1;ratioP1;P1;durP2;ratioP2;P2;SDS_P1;SDS_P2;PMS_P1;PMS_P2;Temp;Humidity;BMP_temperature;BMP_pressure;BME280_temperature;BME280_humidity;BME280_pressure;Samples;Min_cycle;Max_cycle;Signal;HPM_P1;HPM_P2
2021/09/01 00:00:08;;;;;;;9.65;5.13;;;;;;;;;;4940971;29;20060;-94
2021/09/01 00:02:35;;;;;;;9.65;5.80;;;;;;;;;;4940338;29;20031;-91
2021/09/01 00:05:01;;;;;;;13.10;5.75;;;;;;;;;;4940710;29;20027;-95
2021/09/01 00:07:27;;;;;;;12.77;5.55;;;;;;;;;;4941106;29;20027;-94
2021/09/01 00:09:53;;;;;;;8.98;5.68;;;;;;;;;;4940231;29;20113;-93
2021/09/01 00:12:19;;;;;;;9.32;5.95;;;;;;;;;;4940578;29;20023;-94
2021/09/01 00:14:46;;;;;;;8.57;5.45;;;;;;;;;;4927186;29;20047;-95
2021/09/01 00:17:12;;;;;;;9.23;5.03;;;;;;;;;;4941008;29;20114;-93
2021/09/01 00:19:38;;;;;;;9.43;5.90;;;;;;;;;;4940370;29;20031;-95
2021/09/01 00:22:04;;;;;;;9.23;5.32;;;;;;;;;;4941180;29;20055;-94
2021/09/01 00:24:31;;;;;;;8.00;4.78;;;;;;;;;;4940781;29;20031;-96
2021/09/01 00:26:57;;;;;;;7.45;5.10;;;;;;;;;;4939538;29;20054;-95
2021/09/01 00:29:23;;;;;;;10.27;5.47;;;;;;;;;;4951845;29;20059;-92
2021/09/01 00:31:50;;;;;;;6.55;4.30;;;;;;;;;;4947682;29;20034;-95
2021/09/01 00:34:16;;;;;;;8.45;4.65;;;;;;;;;;4940983;29;20078;-93
2021/09/01 00:36:42;;;;;;;8.25;5.13;;;;;;;;;;4939737;29;20094;-96
2021/09/01 00:39:09;;;;;;;9.85;5.50;;;;;;;;;;4940321;29;20023;-96
2021/09/01 00:41:35;;;;;;;13.63;5.40;;;;;;;;;;4940000;29;20110;-94
2021/09/01 00:44:17;;;;;;;8.95;4.35;;;;;;;;;;4939557;29;20512;-94
2021/09/01 00:46:43;;;;;;;10.43;4.97;;;;;;;;;;4939378;29;20111;-93
2021/09/01 00:49:10;;;;;;;7.90;5.22;;;;;;;;;;4939243;29;20031;-95
2021/09/01 00:51:36;;;;;;;6.85;4.75;;;;;;;;;;4939272;29;20103;-95
2021/09/01 00:54:03;;;;;;;9.35;4.70;;;;;;;;;;4939303;28;20027;-95
2021/09/01 00:56:29;;;;;;;9.45;4.93;;;;;;;;;;4943803;29;20027;-95
2021/09/01 00:58:55;;;;;;;7.35;4.72;;;;;;;;;;4943523;29;20085;-93
2021/09/01 01:01:21;;;;;;;13.27;5.10;;;;;;;;;;4943473;29;20028;-93
2021/09/01 01:03:48;;;;;;;10.82;4.28;;;;;;;;;;4943307;29;20035;-95
2021/09/01 01:06:16;;;;;;;9.40;4.60;;;;;;;;;;4943570;29;20019;-95
2021/09/01 01:08:42;;;;;;;7.60;4.78;;;;;;;;;;4943042;29;20055;-91
2021/09/01 01:11:12;;;;;;;8.38;4.68;;;;;;;;;;4943218;29;20023;-96
2021/09/01 01:13:39;;;;;;;8.10;4.95;;;;;;;;;;4943158;29;20031;-96
2021/09/01 01:16:05;;;;;;;9.52;4.97;;;;;;;;;;4943973;29;20110;-95
2021/09/01 01:18:31;;;;;;;7.57;4.97;;;;;;;;;;4942935;29;20178;-95
2021/09/01 01:20:57;;;;;;;8.43;4.68;;;;;;;;;;4943002;29;20496;-94
2021/09/01 01:23:27;;;;;;;7.93;4.43;;;;;;;;;;4942593;29;20062;-95
2021/09/01 01:25:53;;;;;;;7.65;4.97;;;;;;;;;;4943019;29;20027;-96
2021/09/01 01:28:19;;;;;;;9.05;5.18;;;;;;;;;;4942572;29;20139;-93
2021/09/01 01:30:45;;;;;;;9.23;5.25;;;;;;;;;;4943458;29;20066;-89
2021/09/01 01:33:13;;;;;;;7.78;5.00;;;;;;;;;;4942459;29;20035;-93
2021/09/01 01:35:41;;;;;;;7.95;4.53;;;;;;;;;;4942526;29;20055;-95
2021/09/01 01:38:08;;;;;;;9.20;4.72;;;;;;;;;;4942796;29;20027;-95
2021/09/01 01:40:35;;;;;;;9.02;4.60;;;;;;;;;;4942666;29;20489;-95
2021/09/01 01:43:01;;;;;;;9.07;5.05;;;;;;;;;;4942400;29;20558;-92
2021/09/01 01:45:37;;;;;;;7.88;4.60;;;;;;;;;;4942543;29;20031;-94
2021/09/01 01:48:04;;;;;;;9.13;4.70;;;;;;;;;;4942895;29;20038;-94
2021/09/01 01:50:30;;;;;;;5.68;4.07;;;;;;;;;;4943969;29;20046;-95
2021/09/01 01:52:57;;;;;;;10.48;4.47;;;;;;;;;;4942791;29;20101;-92
2021/09/01 01:55:23;;;;;;;7.03;4.78;;;;;;;;;;4942599;29;20043;-94
2021/09/01 01:57:49;;;;;;;6.22;3.90;;;;;;;;;;4942569;29;20106;-90
2021/09/01 02:00:15;;;;;;;7.45;4.60;;;;;;;;;;4942450;29;20373;-94
2021/09/01 02:02:42;;;;;;;7.57;4.85;;;;;;;;;;4943467;29;20502;-93
2021/09/01 02:05:09;;;;;;;8.48;4.40;;;;;;;;;;4942104;29;20031;-95
2021/09/01 02:07:36;;;;;;;8.95;4.60;;;;;;;;;;4941783;29;20024;-95
2021/09/01 02:10:02;;;;;;;8.70;4.90;;;;;;;;;;4942088;29;20393;-92
2021/09/01 02:12:29;;;;;;;6.35;4.07;;;;;;;;;;4943066;29;20023;-96
2021/09/01 02:14:56;;;;;;;10.23;4.72;;;;;;;;;;4950057;29;20012;-90
2021/09/01 02:17:24;;;;;;;7.68;4.63;;;;;;;;;;4963597;29;20080;-93
2021/09/01 02:19:51;;;;;;;10.95;4.53;;;;;;;;;;4934748;29;20067;-96
2021/09/01 02:22:17;;;;;;;7.93;4.80;;;;;;;;;;4942710;29;20031;-96
2021/09/01 02:24:43;;;;;;;8.07;4.28;;;;;;;;;;4942605;29;20055;-95
2021/09/01 02:27:10;;;;;;;7.38;4.55;;;;;;;;;;4941968;29;20051;-96
2021/09/01 02:29:36;;;;;;;6.35;4.38;;;;;;;;;;4941816;29;20050;-95
2021/09/01 02:32:03;;;;;;;6.47;4.25;;;;;;;;;;4942113;29;20030;-96
2021/09/01 02:34:29;;;;;;;7.05;4.30;;;;;;;;;;4942156;29;20039;-95
2021/09/01 02:36:56;;;;;;;8.00;4.35;;;;;;;;;;4942747;29;20030;-95
2021/09/01 02:39:22;;;;;;;7.15;4.13;;;;;;;;;;4941980;29;20031;-94
2021/09/01 02:41:52;;;;;;;8.32;4.70;;;;;;;;;;4943564;29;20066;-96
2021/09/01 02:44:19;;;;;;;10.93;4.50;;;;;;;;;;4943030;29;20059;-96
2021/09/01 02:46:46;;;;;;;6.30;3.95;;;;;;;;;;4943896;29;20031;-96
2021/09/01 02:49:12;;;;;;;6.82;4.45;;;;;;;;;;4941732;29;20031;-95
2021/09/01 02:51:39;;;;;;;7.38;4.03;;;;;;;;;;4942181;29;20480;-96
2021/09/01 02:54:05;;;;;;;7.03;3.90;;;;;;;;;;4941518;29;20075;-96
2021/09/01 02:56:31;;;;;;;8.30;4.28;;;;;;;;;;4941537;29;20118;-95
2021/09/01 02:58:58;;;;;;;7.88;4.30;;;;;;;;;;4941661;29;20086;-95
2021/09/01 03:01:25;;;;;;;11.52;4.38;;;;;;;;;;4941881;29;20019;-96
2021/09/01 03:03:52;;;;;;;9.13;4.05;;;;;;;;;;4941966;29;20074;-96
2021/09/01 03:06:18;;;;;;;8.40;4.10;;;;;;;;;;4942746;29;20027;-94
2021/09/01 03:08:44;;;;;;;7.00;4.45;;;;;;;;;;4942647;29;20023;-96
2021/09/01 03:11:10;;;;;;;11.15;4.28;;;;;;;;;;4927118;29;20039;-95
2021/09/01 03:13:38;;;;;;;8.43;4.40;;;;;;;;;;4941343;29;20484;-95
2021/09/01 03:16:04;;;;;;;8.02;4.32;;;;;;;;;;4941023;29;20104;-96
2021/09/01 03:18:30;;;;;;;6.05;3.92;;;;;;;;;;4941244;29;20484;-93
2021/09/01 03:20:56;;;;;;;10.00;4.22;;;;;;;;;;4942780;29;20122;-96
2021/09/01 03:23:23;;;;;;;8.60;4.82;;;;;;;;;;4942465;29;20031;-96
2021/09/01 03:25:49;;;;;;;8.05;4.28;;;;;;;;;;4941874;29;20027;-96
2021/09/01 03:28:15;;;;;;;8.07;4.22;;;;;;;;;;4941241;29;20048;-96
2021/09/01 03:30:41;;;;;;;9.00;4.03;;;;;;;;;;4942091;29;20054;-95
2021/09/01 03:33:07;;;;;;;6.88;4.00;;;;;;;;;;4942692;29;20023;-96
2021/09/01 03:35:37;;;;;;;7.20;3.70;;;;;;;;;;4941890;29;20506;-96
2021/09/01 03:38:04;;;;;;;7.22;3.95;;;;;;;;;;4942526;29;20043;-95
2021/09/01 03:40:30;;;;;;;9.05;4.55;;;;;;;;;;4941996;29;20030;-95
2021/09/01 03:42:56;;;;;;;9.02;4.10;;;;;;;;;;4940925;29;20042;-96
2021/09/01 03:45:27;;;;;;;7.80;4.38;;;;;;;;;;4941542;29;20051;-96
2021/09/01 03:47:53;;;;;;;9.25;4.82;;;;;;;;;;4942383;29;20023;-96
2021/09/01 03:50:19;;;;;;;7.30;4.00;;;;;;;;;;4940971;29;20035;-95
2021/09/01 03:52:46;;;;;;;8.35;4.07;;;;;;;;;;4962157;29;20023;-96
2021/09/01 03:55:18;;;;;;;6.88;3.58;;;;;;;;;;4942283;29;20077;-96
2021/09/01 03:57:47;;;;;;;7.47;4.45;;;;;;;;;;4944348;29;20035;-96
2021/09/01 04:00:14;;;;;;;7.90;3.90;;;;;;;;;;4941240;29;20034;-96
2021/09/01 04:02:40;;;;;;;9.98;3.70;;;;;;;;;;4925342;29;20046;-96
2021/09/01 04:05:07;;;;;;;8.70;4.22;;;;;;;;;;4945652;29;20042;-92
2021/09/01 04:07:36;;;;;;;8.00;3.70;;;;;;;;;;4955035;29;20126;-96
2021/09/01 04:10:02;;;;;;;8.00;4.68;;;;;;;;;;4944394;29;20035;-96
2021/09/01 04:12:28;;;;;;;8.77;3.88;;;;;;;;;;4940328;29;20034;-93
2021/09/01 04:14:54;;;;;;;6.55;3.90;;;;;;;;;;4940075;29;20109;-96
2021/09/01 04:17:20;;;;;;;8.80;4.32;;;;;;;;;;4940679;29;20057;-96
2021/09/01 04:19:47;;;;;;;8.98;4.65;;;;;;;;;;4940126;29;20023;-96
2021/09/01 04:22:16;;;;;;;12.25;4.22;;;;;;;;;;4940390;29;20456;-96
2021/09/01 04:24:42;;;;;;;6.03;3.63;;;;;;;;;;4939867;29;20031;-96
2021/09/01 04:27:08;;;;;;;6.20;3.28;;;;;;;;;;4940029;29;20082;-96
2021/09/01 04:29:35;;;;;;;9.35;4.30;;;;;;;;;;4941363;29;20097;-96
2021/09/01 04:32:05;;;;;;;6.63;3.47;;;;;;;;;;4942153;29;20094;-96
2021/09/01 04:34:31;;;;;;;7.35;4.00;;;;;;;;;;4925153;29;20138;-96
2021/09/01 04:36:57;;;;;;;6.55;3.97;;;;;;;;;;4940629;29;20098;-96
2021/09/01 04:39:24;;;;;;;6.38;3.90;;;;;;;;;;4941769;29;20031;-96
2021/09/01 04:41:51;;;;;;;8.40;4.32;;;;;;;;;;4942803;29;20540;-96
2021/09/01 04:44:17;;;;;;;6.90;4.28;;;;;;;;;;4942071;29;20066;-96
2021/09/01 04:46:44;;;;;;;5.75;3.70;;;;;;;;;;4941667;29;20433;-96
2021/09/01 04:49:11;;;;;;;6.50;3.97;;;;;;;;;;4941388;29;20031;-96
2021/09/01 04:51:37;;;;;;;10.63;4.90;;;;;;;;;;4940958;29;20031;-96
2021/09/01 04:54:04;;;;;;;7.18;3.83;;;;;;;;;;4940135;29;20086;-94
2021/09/01 04:56:30;;;;;;;7.47;4.32;;;;;;;;;;4941260;29;20374;-96
2021/09/01 04:58:56;;;;;;;7.50;3.95;;;;;;;;;;4940266;29;20023;-96
2021/09/01 05:01:22;;;;;;;5.97;3.25;;;;;;;;;;4940473;29;20027;-96
2021/09/01 05:03:48;;;;;;;7.25;4.07;;;;;;;;;;4940568;29;20061;-96
2021/09/01 05:06:14;;;;;;;8.60;4.10;;;;;;;;;;4939980;29;20032;-96
2021/09/01 05:08:40;;;;;;;6.20;4.05;;;;;;;;;;4939650;29;20103;-94
2021/09/01 05:11:07;;;;;;;7.72;3.65;;;;;;;;;;4939443;29;20038;-93
2021/09/01 05:13:33;;;;;;;7.60;4.07;;;;;;;;;;4939005;29;20388;-95
2021/09/01 05:15:59;;;;;;;7.90;4.20;;;;;;;;;;4939099;29;20036;-94
2021/09/01 05:18:25;;;;;;;7.13;4.38;;;;;;;;;;4939170;29;20023;-92
2021/09/01 05:20:55;;;;;;;8.88;3.85;;;;;;;;;;4956505;29;20480;-94
2021/09/01 05:23:22;;;;;;;7.32;4.05;;;;;;;;;;4939140;29;20086;-94
2021/09/01 05:25:57;;;;;;;7.43;4.50;;;;;;;;;;4939180;29;20035;-96
2021/09/01 05:28:27;;;;;;;13.25;4.10;;;;;;;;;;4939069;29;20065;-95
2021/09/01 05:30:53;;;;;;;7.82;3.90;;;;;;;;;;4939617;29;20042;-96
2021/09/01 05:33:31;;;;;;;10.90;4.90;;;;;;;;;;4941223;29;20024;-96
2021/09/01 05:36:04;;;;;;;7.32;3.53;;;;;;;;;;4959336;29;20110;-96
2021/09/01 05:38:32;;;;;;;8.15;4.65;;;;;;;;;;4941950;29;20023;-96
2021/09/01 05:40:59;;;;;;;8.38;4.10;;;;;;;;;;4941826;29;20113;-95
2021/09/01 05:43:25;;;;;;;7.20;4.32;;;;;;;;;;4946028;29;20027;-96
2021/09/01 05:45:52;;;;;;;7.32;4.38;;;;;;;;;;4943186;29;20035;-95
2021/09/01 05:48:20;;;;;;;9.23;3.78;;;;;;;;;;4943770;29;20031;-96
2021/09/01 05:50:50;;;;;;;7.25;3.90;;;;;;;;;;4945912;29;20039;-96
2021/09/01 05:53:16;;;;;;;6.40;3.75;;;;;;;;;;4943740;29;20468;-94
2021/09/01 05:55:43;;;;;;;5.10;3.58;;;;;;;;;;4917621;29;20118;-95
2021/09/01 05:58:15;;;;;;;9.02;3.75;;;;;;;;;;4923819;29;20027;-96
2021/09/01 06:00:46;;;;;;;6.60;4.43;;;;;;;;;;4943509;29;20024;-95
2021/09/01 06:03:25;;;;;;;6.95;4.20;;;;;;;;;;4936397;29;20052;-93
2021/09/01 06:06:20;;;;;;;6.05;3.53;;;;;;;;;;4934206;29;20039;-95
2021/09/01 06:09:11;;;;;;;9.10;4.15;;;;;;;;;;4932776;29;20032;-96
2021/09/01 06:11:53;;;;;;;7.40;4.43;;;;;;;;;;4935108;29;20039;-96
2021/09/01 06:14:58;;;;;;;6.73;3.90;;;;;;;;;;4940956;29;20015;-96
2021/09/01 06:21:06;;;;;;;7.57;4.00;;;;;;;;;;4934111;29;20028;-96
2021/09/01 06:23:55;;;;;;;6.43;3.45;;;;;;;;;;4943335;29;20056;-95
2021/09/01 06:29:34;;;;;;;6.95;4.03;;;;;;;;;;4924576;29;20043;-96
2021/09/01 06:32:24;;;;;;;6.35;3.67;;;;;;;;;;4946290;29;20058;-95
2021/09/01 06:35:12;;;;;;;7.28;3.92;;;;;;;;;;4946668;29;20035;-96
2021/09/01 06:37:49;;;;;;;8.65;4.05;;;;;;;;;;4944987;29;20477;-94
2021/09/01 06:40:48;;;;;;;8.68;4.15;;;;;;;;;;4934872;29;20027;-96
2021/09/01 06:43:25;;;;;;;8.02;3.75;;;;;;;;;;4948032;29;20023;-95
2021/09/01 06:45:55;;;;;;;6.40;3.92;;;;;;;;;;4954544;29;20087;-96
2021/09/01 06:48:22;;;;;;;9.68;4.40;;;;;;;;;;4932441;29;20042;-94
2021/09/01 06:50:51;;;;;;;14.70;3.75;;;;;;;;;;4949127;29;20120;-96
2021/09/01 06:53:38;;;;;;;6.93;4.20;;;;;;;;;;4930725;29;20031;-95
2021/09/01 06:56:06;;;;;;;7.72;3.95;;;;;;;;;;4942718;29;20122;-93
2021/09/01 06:58:35;;;;;;;11.80;4.18;;;;;;;;;;4944501;29;20063;-96
2021/09/01 07:01:27;;;;;;;6.60;3.58;;;;;;;;;;4946835;29;20012;-96
2021/09/01 07:04:11;;;;;;;8.10;4.00;;;;;;;;;;4934979;29;20036;-96
2021/09/01 07:06:37;;;;;;;7.03;4.07;;;;;;;;;;4957345;29;20040;-95
2021/09/01 07:09:04;;;;;;;6.50;3.90;;;;;;;;;;4974357;23;20057;-96
2021/09/01 07:11:35;;;;;;;7.00;4.07;;;;;;;;;;4972545;29;20019;-94
2021/09/01 07:14:02;;;;;;;7.07;3.63;;;;;;;;;;4971322;29;20031;-96
2021/09/01 07:16:37;;;;;;;7.10;4.15;;;;;;;;;;4965246;29;20094;-95
2021/09/01 07:19:23;;;;;;;8.65;4.07;;;;;;;;;;4967731;29;20035;-96
2021/09/01 07:22:11;;;;;;;13.98;4.88;;;;;;;;;;4967753;28;20095;-95
2021/09/01 07:24:37;;;;;;;13.55;5.05;;;;;;;;;;4962700;29;20035;-95
2021/09/01 07:27:03;;;;;;;12.45;5.45;;;;;;;;;;4960900;29;20460;-95
2021/09/01 07:29:29;;;;;;;14.38;5.22;;;;;;;;;;4961046;29;20035;-93
2021/09/01 07:32:07;;;;;;;6.57;3.88;;;;;;;;;;4964555;29;20034;-96
2021/09/01 07:34:33;;;;;;;7.30;4.05;;;;;;;;;;4948687;29;20027;-96
2021/09/01 07:37:00;;;;;;;7.20;4.07;;;;;;;;;;4932151;29;20040;-96
2021/09/01 07:39:26;;;;;;;7.10;4.25;;;;;;;;;;4933874;29;20019;-96
2021/09/01 07:41:55;;;;;;;7.80;4.40;;;;;;;;;;4963411;29;20019;-94
2021/09/01 07:44:26;;;;;;;9.25;4.22;;;;;;;;;;4961164;29;20137;-95
2021/09/01 07:46:52;;;;;;;7.80;4.35;;;;;;;;;;4933107;29;20058;-94
2021/09/01 07:49:22;;;;;;;6.85;3.80;;;;;;;;;;4964754;29;20032;-96
2021/09/01 07:51:49;;;;;;;6.75;3.08;;;;;;;;;;4959401;29;20028;-96
2021/09/01 07:54:24;;;;;;;7.18;2.72;;;;;;;;;;4943101;29;20031;-96
2021/09/01 07:56:54;;;;;;;5.75;2.85;;;;;;;;;;4929464;29;20043;-96
2021/09/01 07:59:20;;;;;;;6.10;3.05;;;;;;;;;;4933293;29;20023;-95
2021/09/01 08:01:47;;;;;;;3.65;1.80;;;;;;;;;;4945209;29;20032;-95
2021/09/01 08:04:13;;;;;;;5.35;2.00;;;;;;;;;;4955503;28;20027;-94
2021/09/01 08:06:41;;;;;;;4.15;2.20;;;;;;;;;;4961151;29;20031;-96
2021/09/01 08:09:07;;;;;;;3.67;1.85;;;;;;;;;;4950183;29;20053;-95
2021/09/01 08:11:33;;;;;;;3.75;2.13;;;;;;;;;;4961440;28;20047;-95
2021/09/01 08:14:00;;;;;;;6.22;2.13;;;;;;;;;;4958219;29;20488;-94
2021/09/01 08:16:31;;;;;;;4.95;2.05;;;;;;;;;;4957272;29;20038;-96
2021/09/01 08:18:57;;;;;;;7.55;2.70;;;;;;;;;;4962536;29;20031;-93
2021/09/01 08:21:23;;;;;;;4.13;1.70;;;;;;;;;;4942123;29;20031;-81
2021/09/01 08:23:52;;;;;;;4.10;2.08;;;;;;;;;;4954811;29;20370;-92
2021/09/01 08:26:19;;;;;;;4.00;2.10;;;;;;;;;;4954635;29;20031;-85
2021/09/01 08:28:45;;;;;;;3.17;1.98;;;;;;;;;;4955225;29;20021;-86
2021/09/01 08:31:11;;;;;;;3.28;1.85;;;;;;;;;;4954353;29;20035;-86
2021/09/01 08:33:38;;;;;;;3.60;1.90;;;;;;;;;;4954217;29;20027;-86
2021/09/01 08:36:05;;;;;;;5.20;2.08;;;;;;;;;;4955408;29;20037;-86
2021/09/01 08:38:31;;;;;;;4.05;2.03;;;;;;;;;;4955623;29;20366;-92
2021/09/01 08:41:00;;;;;;;3.33;1.92;;;;;;;;;;4952544;29;20015;-85
